Airport Name : Al Maktoum Intl

Other Name : Dubai World

ICAO : OMDW

IATA : DWC

FAA :

Latitude : 24.91833

Longitude : 55.17556

Country : United Arab Emirates

Local Date and Time : 10/16/2018 12:02:00 PM

 

TAF (Terminal Aerodrome Forecast)

TAF OMDW 160500Z 1606/1712 24005KT 8000 NSC BECMG 1607/1609 32014KT BECMG 1616/1618 09005KT BECMG 1708/1710 34017KT PROB30 TEMPO 1709/1712 3000 DU

 

METAR (METeorological Aerodrome Report)

OMDW 160800Z 31008KT 250V360 9999 SCT033 33/22 Q1014 NOSIG

OMDW 160700Z 28006KT 240V320 9999 SCT033 32/23 Q1016 NOSIG

OMDW 160600Z 21005KT 170V250 CAVOK 30/23 Q1016 NOSIG

OMDW 160500Z 21005KT CAVOK 29/23 Q1016 NOSIG